Flight Track Log - Related Links

Times and Time Zones

All times are in EDT time to prevent confusion due to time zone crossing. See the N368CS flight status page for this flight to view local times or setup timezone preferences in your user account.


Time Position Orientation Groundspeed Altitude Reporting Facility
EDT Latitude Longitude Course Direction KTS MPH feet Rate Location/Type
Fri 06:41:57 PM 34.1667 -118.5000 North 200 230 3,500  Level Southern California TRACON
Fri 06:42:57 PM 34.1333 -118.5667 239° Southwest 241 277 5,900 2,238 Climbing Southern California TRACON
Fri 06:45:10 PM 34.2728 -118.6492 334° Northwest 271 312 10,700 2,308 Climbing Los Angeles Center
Fri 06:46:12 PM 34.3475 -118.6789 342° North 281 323 13,400 2,736 Climbing Los Angeles Center
Fri 06:47:00 PM 34.9350 -118.8500 North  Level FlightAware Approximate
Fri 06:47:15 PM 34.4469 -118.7175 342° North 311 358 16,400  Level Los Angeles Center
Fri 06:48:17 PM 34.5317 -118.7508 342° North 316 364 18,700 2,226 Climbing Los Angeles Center
Fri 06:49:19 PM 34.6197 -118.7850 342° North 330 380 21,000 1,694 Climbing Los Angeles Center
Fri 06:50:21 PM 34.7108 -118.8250 340° North 342 394 22,200 1,306 Climbing Los Angeles Center
Fri 06:51:23 PM 34.8106 -118.8594 344° North 365 420 23,700 1,403 Climbing Los Angeles Center
Fri 06:52:25 PM 34.9189 -118.8578 North 388 447 25,100 1,306 Climbing Los Angeles Center
Fri 06:53:27 PM 35.0500 -118.8539 North 390 449 26,400 1,104 Climbing Los Angeles Center
Fri 06:54:30 PM 35.1639 -118.8506 North 404 465 27,400 960 Climbing Los Angeles Center
Fri 06:55:32 PM 35.2789 -118.8475 North 410 472 28,400 968 Climbing Los Angeles Center
Fri 06:56:34 PM 35.3947 -118.8633 354° North 421 484 29,400 1,065 Climbing Los Angeles Center
Fri 06:57:36 PM 35.5075 -118.8836 352° North 418 481 30,600 1,548 Climbing Los Angeles Center
Fri 06:58:38 PM 35.6386 -118.8961 356° North 404 465 32,600 1,742 Climbing Los Angeles Center
Fri 06:59:40 PM 35.7497 -118.8906 North 403 464 34,200 1,161 Climbing Los Angeles Center
Fri 07:00:42 PM 35.8589 -118.8833 North 402 463 35,000 1,030 Climbing Los Angeles Center
Fri 07:01:19 PM 35.9242 -118.8800 North 395 455 35,900 848 Climbing Oakland Center
Fri 07:02:21 PM 36.0331 -118.8728 North 393 452 36,400 677 Climbing Oakland Center
Fri 07:03:23 PM 36.1444 -118.8681 North 398 458 37,300 927 Climbing Oakland Center
Fri 07:04:24 PM 36.2767 -118.8586 North 399 459 38,300 732 Climbing Oakland Center
Fri 07:05:26 PM 36.3856 -118.8531 North 395 455 38,800 488 Climbing Oakland Center
Fri 07:06:27 PM 36.4961 -118.8461 North 397 457 39,300 488 Climbing Oakland Center
Fri 07:07:29 PM 36.6022 -118.8353 North 389 448 39,800 341 Climbing Oakland Center
Fri 07:08:30 PM 36.7139 -118.8278 North 397 457 40,000 98 Climbing Oakland Center
Fri 07:09:32 PM 36.8275 -118.8203 North 406 467 40,000  Level Oakland Center
Fri 07:10:34 PM 36.9464 -118.8125 North 423 487 40,000  Level Oakland Center
Fri 07:11:35 PM 37.0894 -118.8036 North 430 495 40,000 390 Level Oakland Center
Fri 07:12:37 PM 37.2097 -118.7961 North 433 498 40,800 488 Climbing Oakland Center
Fri 07:13:38 PM 37.3239 -118.7875 North 418 481 41,000 98 Climbing Oakland Center
Fri 07:14:40 PM 37.4397 -118.7492 15° North 438 504 41,000  Level Oakland Center
Fri 07:15:42 PM 37.5494 -118.6733 29° Northeast 450 518 41,000  Level Oakland Center
Fri 07:16:43 PM 37.6611 -118.5961 29° Northeast 453 521 41,000  Level Oakland Center
Fri 07:17:45 PM 37.7719 -118.5181 29° Northeast 455 524 41,000  Level Oakland Center
Fri 07:18:47 PM 37.8811 -118.4417 29° Northeast 447 514 41,000  Level Oakland Center
Fri 07:19:48 PM 38.0142 -118.3469 29° Northeast 454 522 41,000  Level Oakland Center
Fri 07:20:50 PM 38.1264 -118.2692 29° Northeast 455 524 41,000  Level Oakland Center
Fri 07:21:51 PM 38.2383 -118.1903 29° Northeast 458 527 41,000  Level Oakland Center
Fri 07:22:53 PM 38.3511 -118.1097 29° Northeast 461 531 41,000  Level Oakland Center
Fri 07:23:55 PM 38.4622 -118.0289 30° Northeast 458 527 41,000  Level Oakland Center
Fri 07:24:56 PM 38.5736 -117.9492 29° Northeast 457 526 41,000  Level Oakland Center
Fri 07:25:58 PM 38.6844 -117.8708 29° Northeast 454 522 41,000  Level Oakland Center
Fri 07:27:00 PM 38.7947 -117.7903 30° Northeast 453 521 41,000  Level Oakland Center
Fri 07:28:01 PM 38.9056 -117.7089 30° Northeast 455 524 41,000  Level Oakland Center
Fri 07:29:03 PM 39.0156 -117.6308 29° Northeast 451 519 41,000  Level Oakland Center
Fri 07:30:05 PM 39.1475 -117.5322 30° Northeast 454 522 41,000  Level Oakland Center
Fri 07:31:06 PM 39.2561 -117.4514 30° Northeast 451 519 41,000  Level Oakland Center
Fri 07:32:08 PM 39.3658 -117.3725 29° Northeast 450 518 41,000  Level Oakland Center
Fri 07:32:54 PM 39.4367 -117.3194 30° Northeast 452 520 41,000  Level Salt Lake Center
Fri 07:33:56 PM 39.5583 -117.2306 29° Northeast 451 519 41,000  Level Salt Lake Center
Fri 07:34:58 PM 39.6625 -117.1542 29° Northeast 451 519 41,000  Level Salt Lake Center
Fri 07:36:00 PM 39.7836 -117.0636 30° Northeast 451 519 41,000  Level Salt Lake Center
Fri 07:37:02 PM 39.8867 -116.9858 30° Northeast 451 519 41,000  Level Salt Lake Center
Fri 07:38:04 PM 40.0092 -116.8947 30° Northeast 451 519 41,000  Level Salt Lake Center
Fri 07:39:06 PM 40.1122 -116.8164 30° Northeast 451 519 41,000  Level Salt Lake Center
Fri 07:40:08 PM 40.2322 -116.7250 30° Northeast 451 519 41,000  Level Salt Lake Center
Fri 07:41:10 PM 40.3344 -116.6467 30° Northeast 451 519 41,000  Level Salt Lake Center
Fri 07:42:12 PM 40.4533 -116.5586 29° Northeast 449 517 41,000  Level Salt Lake Center
Fri 07:43:14 PM 40.5544 -116.4817 30° Northeast 444 511 41,000  Level Salt Lake Center
Fri 07:44:15 PM 40.6731 -116.3903 30° Northeast 443 510 41,000  Level Salt Lake Center
Fri 07:45:17 PM 40.7747 -116.3111 31° Northeast 444 511 41,000  Level Salt Lake Center
Fri 07:46:19 PM 40.8947 -116.2172 31° Northeast 445 512 41,000  Level Salt Lake Center
Fri 07:47:21 PM 40.9961 -116.1383 30° Northeast 445 512 41,000  Level Salt Lake Center
Fri 07:48:23 PM 41.1164 -116.0464 30° Northeast 445 512 41,000  Level Salt Lake Center
Fri 07:49:25 PM 41.2181 -115.9661 31° Northeast 445 512 41,000  Level Salt Lake Center
Fri 07:50:27 PM 41.3358 -115.8722 31° Northeast 445 512 41,000  Level Salt Lake Center
Fri 07:51:29 PM 41.4383 -115.7919 30° Northeast 445 512 41,000  Level Salt Lake Center
Fri 07:52:31 PM 41.5394 -115.7108 31° Northeast 444 511 41,000  Level Salt Lake Center
Fri 07:53:33 PM 41.6586 -115.6167 31° Northeast 444 511 41,000  Level Salt Lake Center
Fri 07:54:35 PM 41.7594 -115.5342 31° Northeast 445 512 41,000  Level Salt Lake Center
Fri 07:55:37 PM 41.8819 -115.4403 30° Northeast 452 520 41,000  Level Salt Lake Center
Fri 07:56:39 PM 41.9833 -115.3567 32° Northeast 449 517 41,000 -1,161 Level Salt Lake Center
Fri 07:57:41 PM 42.0975 -115.2667 30° Northeast 467 537 38,600 -3,073 Descending Salt Lake Center
Fri 07:58:42 PM 42.2114 -115.1733 31° Northeast 479 551 34,700 -3,415 Descending Salt Lake Center
Fri 07:59:44 PM 42.3372 -115.0694 31° Northeast 438 504 31,600 -2,806 Descending Salt Lake Center
Fri 08:00:46 PM 42.4508 -114.9767 31° Northeast 481 554 28,900 -2,468 Descending Salt Lake Center
Fri 08:01:48 PM 42.5561 -114.8914 31° Northeast 496 571 26,500 -2,661 Descending Salt Lake Center
Fri 08:02:50 PM 42.6814 -114.7864 32° Northeast 479 551 23,400 -2,710 Descending Salt Lake Center
Fri 08:03:52 PM 42.7847 -114.6989 32° Northeast 444 511 20,900 -2,323 Descending Salt Lake Center
Fri 08:04:54 PM 42.8822 -114.6197 31° Northeast 363 418 18,600 -1,935 Descending Salt Lake Center
Fri 08:05:56 PM 42.9569 -114.5581 31° Northeast 334 384 16,900 -1,500 Descending Salt Lake Center
Fri 08:06:58 PM 43.0322 -114.4972 31° Northeast 307 353 15,500 -1,355 Descending Salt Lake Center
Fri 08:08:00 PM 43.1025 -114.4403 31° Northeast 286 329 14,100 -1,415 Descending Salt Lake Center
Fri 08:09:01 PM 43.1708 -114.3847 31° Northeast 278 320 12,600 -1,475 Descending Salt Lake Center

Login

Don't have an account? Register now (free) for customized features, flight alerts, and more!